• Join FlightAware (Why Join?)
  • Login
  • US Flag 
08:34PM EDT


 

Airport Tracker/Info


-or-


 

Live Flight TrackerFlight Track Log ✈ CHQ5046 ✈ 25-Apr-2013 ✈ KORD - KAZO

Flight Track Log - Related Links

Times and Time Zones

All times are in EDT time to prevent confusion due to time zone crossing. See the CHQ5046 flight status page for this flight to view local times or setup timezone preferences in your user account.

Time Position Orientation Groundspeed Altitude Reporting Facility
EDT Latitude Longitude Course Direction KTS MPH feet Rate Location/Type
07:21PM 42.0500 -87.9167 84° East 227 261 3,900  Level Chicago TRACON
07:23PM 42.0167 -87.6486 90° East  Level FlightAware Approximate
07:23PM 42.1056 -87.7867 60° Northeast 277 319 8,000  Level Chicago Center
07:24PM 42.0310 -87.5690 37° Northeast  Level FlightAware Approximate
07:24PM 42.1250 -87.6611 78° East 295 339 10,900  Level Chicago Center
07:25PM 42.0405 -87.4817 84° East  Level FlightAware Approximate
07:25PM 42.1208 -87.5431 93° East 316 364 11,000  Level Chicago Center
07:26PM 42.0484 -87.3858 84° East  Level FlightAware Approximate
07:26PM 42.1178 -87.4203 92° East 327 376 11,000  Level Chicago Center
07:27PM 42.1161 -87.2792 91° East 380 437 11,000  Level Chicago Center
07:28PM 42.1125 -87.1333 92° East 392 451 11,000  Level Chicago Center
07:29PM 42.1139 -86.9644 89° East 382 440 11,000  Level Chicago Center
07:30PM 42.1194 -86.8242 87° East 379 436 11,000  Level Chicago Center
07:31PM 42.1247 -86.6858 87° East 374 430 11,000  Level Chicago Center
07:32PM 42.1294 -86.5511 87° East 375 432 11,000  Level Chicago Center
07:33PM 42.1350 -86.4122 87° East 372 428 11,000  Level Chicago Center
07:34PM 42.1392 -86.2714 88° East 375 432 11,000 -60 Level Chicago Center
07:35PM 42.1450 -86.1039 87° East 375 432 10,900 -540 Descending Chicago Center
07:36PM 42.1614 -85.9878 79° East 320 368 9,900 -1,380 Descending Chicago Center
07:37PM 42.1503 -85.8828 98° East 290 334 8,100 -1,980 Descending Chicago Center
07:39PM 42.1833 -85.7880 90° East  Level FlightAware Approximate
07:40PM 42.1331 -85.6847 90° East 267 307 3,800  Level Chicago Center
07:41PM 42.1258 -85.5917 96° East 255 293 2,500 -720 Descending Chicago Center
07:42PM 42.1519 -85.5256 62° Northeast 212 244 2,400 -480 Descending Chicago Center
07:43PM 42.1897 -85.5436 341° North 165 190 1,600 -600 Descending Chicago Center
07:44PM 42.2211 -85.5511 350° North 148 170 1,200 -420 Descending Chicago Center